createdAt,value
2023-03-25T00:00:16.917Z,8.20
2023-03-25T00:02:50.278Z,8.20
2023-03-25T00:05:20.201Z,8.10
2023-03-25T00:07:49.870Z,7.90
2023-03-25T00:10:17.039Z,7.80
2023-03-25T00:12:43.738Z,7.70
2023-03-25T00:15:12.219Z,7.70
2023-03-25T00:17:39.207Z,7.70
2023-03-25T00:20:10.095Z,7.60
2023-03-25T00:22:40.920Z,7.70
2023-03-25T00:25:17.050Z,7.70
2023-03-25T00:27:46.413Z,7.70
2023-03-25T00:30:18.091Z,7.60
2023-03-25T00:32:52.695Z,7.60
2023-03-25T00:35:20.257Z,7.60
2023-03-25T00:37:57.178Z,7.50
2023-03-25T00:40:24.388Z,7.60
2023-03-25T00:42:51.040Z,7.50
2023-03-25T00:45:17.928Z,7.50
2023-03-25T00:47:44.687Z,7.50
2023-03-25T00:50:11.859Z,7.40
2023-03-25T00:52:38.578Z,7.40
2023-03-25T00:55:05.982Z,7.40
2023-03-25T00:57:32.803Z,7.40
2023-03-25T00:59:59.580Z,7.40
2023-03-25T01:02:26.449Z,7.40
2023-03-25T01:04:53.249Z,7.40
2023-03-25T01:07:20.505Z,7.30
2023-03-25T01:09:48.821Z,7.30
2023-03-25T01:12:17.054Z,7.30
2023-03-25T01:14:44.005Z,7.30
2023-03-25T01:17:11.522Z,7.20
2023-03-25T01:19:38.286Z,7.10
2023-03-25T01:22:05.388Z,7.10
2023-03-25T01:24:32.214Z,7.00
2023-03-25T01:26:58.988Z,7.10
2023-03-25T01:29:25.807Z,7.00
2023-03-25T01:31:53.657Z,7.00
2023-03-25T01:34:20.449Z,7.00
2023-03-25T01:36:47.173Z,7.00
2023-03-25T01:39:18.861Z,7.00
2023-03-25T01:41:50.096Z,7.00
2023-03-25T01:44:21.007Z,7.00
2023-03-25T01:46:49.396Z,7.00
2023-03-25T01:49:33.253Z,7.00
2023-03-25T01:52:07.010Z,7.00
2023-03-25T01:54:34.830Z,7.00
2023-03-25T01:57:01.764Z,7.00
2023-03-25T01:59:29.307Z,7.00
2023-03-25T02:02:01.619Z,7.00
2023-03-25T02:04:39.113Z,7.00
2023-03-25T02:07:10.326Z,7.00
2023-03-25T02:09:38.088Z,7.00
2023-03-25T02:12:05.338Z,6.90
2023-03-25T02:14:35.958Z,6.90
2023-03-25T02:17:29.130Z,6.90
2023-03-25T02:20:14.448Z,6.90
2023-03-25T02:23:02.194Z,6.90
2023-03-25T02:25:47.010Z,6.90
2023-03-25T02:28:25.758Z,6.80
2023-03-25T02:30:58.674Z,6.80
2023-03-25T02:34:02.114Z,6.80
2023-03-25T02:37:00.104Z,6.90
2023-03-25T02:39:44.748Z,6.90
2023-03-25T02:42:30.643Z,6.90
2023-03-25T02:45:02.362Z,6.90
2023-03-25T02:47:36.268Z,6.90
2023-03-25T02:50:17.311Z,6.90
2023-03-25T02:52:55.016Z,6.90
2023-03-25T02:55:25.402Z,6.80
2023-03-25T02:57:54.820Z,6.70
2023-03-25T03:00:27.394Z,6.60
2023-03-25T03:03:02.559Z,6.50
2023-03-25T03:05:57.723Z,6.50
2023-03-25T03:08:38.846Z,6.40
2023-03-25T03:11:29.596Z,6.40
2023-03-25T03:14:28.768Z,6.30
2023-03-25T03:17:33.113Z,6.30
2023-03-25T03:20:35.224Z,6.20
2023-03-25T03:23:18.102Z,6.20
2023-03-25T03:25:53.955Z,6.20
2023-03-25T03:29:13.031Z,6.10
2023-03-25T03:31:59.202Z,6.10
2023-03-25T03:34:43.107Z,6.10
2023-03-25T03:37:12.899Z,6.00
2023-03-25T03:39:39.972Z,6.10
2023-03-25T03:42:27.995Z,6.00
2023-03-25T03:45:00.530Z,6.10
2023-03-25T03:47:33.187Z,6.00
2023-03-25T03:50:13.601Z,6.00
2023-03-25T03:52:52.725Z,6.10
2023-03-25T03:56:08.528Z,6.10
2023-03-25T03:58:44.574Z,6.10
2023-03-25T04:01:27.914Z,6.10
2023-03-25T04:03:59.557Z,6.10
2023-03-25T04:06:38.625Z,6.10
2023-03-25T04:09:27.458Z,6.10
2023-03-25T04:11:59.915Z,6.10
2023-03-25T04:14:26.867Z,6.00
2023-03-25T04:16:55.758Z,6.00
2023-03-25T04:19:23.874Z,6.00
2023-03-25T04:21:50.745Z,6.10
2023-03-25T04:24:19.726Z,6.00
2023-03-25T04:26:47.720Z,6.00
2023-03-25T04:29:14.455Z,6.00
2023-03-25T04:31:46.209Z,6.00
2023-03-25T04:34:14.925Z,6.00
2023-03-25T04:36:43.037Z,6.00
2023-03-25T04:39:13.642Z,6.00
2023-03-25T04:41:40.273Z,6.00
2023-03-25T04:44:07.748Z,6.00
2023-03-25T04:46:36.340Z,5.90
2023-03-25T04:49:06.102Z,5.90
2023-03-25T04:51:33.251Z,5.90
2023-03-25T04:53:59.906Z,5.90
2023-03-25T04:56:27.067Z,5.90
2023-03-25T04:58:53.736Z,5.80
2023-03-25T05:01:32.603Z,5.70
2023-03-25T05:04:05.878Z,5.70
2023-03-25T05:06:38.900Z,5.80
2023-03-25T05:09:07.659Z,5.80
2023-03-25T05:11:37.145Z,5.80
2023-03-25T05:14:03.889Z,5.80
2023-03-25T05:16:30.609Z,5.80
2023-03-25T05:18:57.281Z,5.70
2023-03-25T05:21:24.037Z,5.70
2023-03-25T05:23:52.510Z,5.70
2023-03-25T05:26:20.969Z,5.70
2023-03-25T05:28:51.344Z,5.70
2023-03-25T05:31:18.672Z,5.80
2023-03-25T05:33:45.461Z,5.80
2023-03-25T05:36:17.997Z,5.80
2023-03-25T05:38:44.716Z,5.90
2023-03-25T05:41:16.478Z,5.80
2023-03-25T05:43:48.166Z,5.90
2023-03-25T05:46:15.403Z,5.90
2023-03-25T05:48:42.868Z,6.00
2023-03-25T05:51:17.924Z,6.00
2023-03-25T05:53:49.605Z,6.00
2023-03-25T05:56:19.993Z,6.00
2023-03-25T05:58:48.550Z,6.00
2023-03-25T06:01:29.444Z,6.00
2023-03-25T06:04:01.639Z,6.10
2023-03-25T06:06:29.254Z,6.10
2023-03-25T06:08:57.924Z,6.10
2023-03-25T06:11:24.834Z,6.20
2023-03-25T06:13:51.576Z,6.10
2023-03-25T06:16:29.883Z,6.30
2023-03-25T06:18:59.608Z,6.20
2023-03-25T06:21:32.987Z,6.30
2023-03-25T06:24:01.374Z,6.40
2023-03-25T06:26:28.550Z,6.30
2023-03-25T06:28:55.383Z,6.30
2023-03-25T06:31:27.675Z,6.40
2023-03-25T06:33:55.974Z,6.40
2023-03-25T06:36:25.785Z,6.40
2023-03-25T06:38:53.315Z,6.40
2023-03-25T06:41:20.931Z,6.40
2023-03-25T06:43:48.742Z,6.40
2023-03-25T06:46:16.351Z,6.50
2023-03-25T06:48:43.347Z,6.50
2023-03-25T06:51:10.119Z,6.50
2023-03-25T06:53:36.802Z,6.50
2023-03-25T06:56:03.697Z,6.60
2023-03-25T06:58:34.777Z,6.60
2023-03-25T07:01:06.942Z,6.70
2023-03-25T07:03:34.820Z,6.70
2023-03-25T07:06:01.601Z,6.70
2023-03-25T07:08:28.492Z,6.80
2023-03-25T07:11:04.626Z,6.80
2023-03-25T07:13:31.486Z,6.80
2023-03-25T07:15:59.088Z,6.90
2023-03-25T07:18:26.296Z,7.00
2023-03-25T07:20:53.372Z,7.10
2023-03-25T07:23:20.536Z,7.10
2023-03-25T07:25:47.396Z,7.10
2023-03-25T07:28:14.526Z,7.00
2023-03-25T07:30:41.561Z,7.10
2023-03-25T07:33:08.362Z,7.10
2023-03-25T07:35:35.127Z,7.00
2023-03-25T07:38:02.716Z,7.10
2023-03-25T07:40:29.407Z,7.00
2023-03-25T07:42:56.256Z,7.00
2023-03-25T07:45:23.039Z,7.00
2023-03-25T07:47:50.567Z,7.00
2023-03-25T07:50:18.869Z,6.90
2023-03-25T07:52:46.082Z,7.00
2023-03-25T07:55:13.763Z,7.20
2023-03-25T07:57:42.132Z,7.30
2023-03-25T08:00:10.915Z,7.30
2023-03-25T08:02:39.319Z,7.30
2023-03-25T08:05:07.086Z,7.50
2023-03-25T08:07:34.328Z,7.40
2023-03-25T08:10:00.979Z,7.50
2023-03-25T08:12:27.888Z,7.50
2023-03-25T08:14:54.640Z,7.50
2023-03-25T08:17:21.323Z,7.60
2023-03-25T08:19:48.113Z,7.60
2023-03-25T08:22:15.051Z,7.60
2023-03-25T08:24:41.971Z,7.70
2023-03-25T08:27:16.275Z,7.70
2023-03-25T08:29:44.154Z,7.70
2023-03-25T08:32:11.343Z,7.50
2023-03-25T08:34:39.994Z,7.40
2023-03-25T08:37:07.941Z,7.30
2023-03-25T08:39:40.056Z,7.30
2023-03-25T08:42:08.129Z,7.30
2023-03-25T08:44:35.650Z,7.30
2023-03-25T08:47:03.194Z,7.40
2023-03-25T08:49:30.421Z,7.50
2023-03-25T08:51:58.987Z,7.50
2023-03-25T08:54:26.190Z,7.50
2023-03-25T08:56:53.390Z,7.60
2023-03-25T08:59:20.493Z,7.60
2023-03-25T09:01:48.142Z,7.50
2023-03-25T09:04:14.932Z,7.50
2023-03-25T09:06:47.732Z,7.50
2023-03-25T09:09:29.879Z,7.50
2023-03-25T09:11:56.845Z,7.50
2023-03-25T09:14:23.497Z,7.50
2023-03-25T09:16:50.447Z,7.60
2023-03-25T09:19:17.160Z,7.80
2023-03-25T09:21:43.852Z,7.80
2023-03-25T09:24:10.541Z,7.90
2023-03-25T09:26:37.581Z,7.90
2023-03-25T09:29:04.397Z,7.90
2023-03-25T09:31:31.245Z,8.00
2023-03-25T09:33:57.985Z,8.10
2023-03-25T09:36:24.829Z,8.20
2023-03-25T09:38:51.553Z,8.20
2023-03-25T09:41:39.250Z,8.30
2023-03-25T09:44:24.961Z,8.20
2023-03-25T09:46:51.889Z,8.20
2023-03-25T09:49:25.805Z,8.20
2023-03-25T09:51:54.580Z,8.00
2023-03-25T09:54:28.590Z,8.10
2023-03-25T09:57:01.078Z,8.00
2023-03-25T09:59:49.627Z,8.20
2023-03-25T10:02:27.944Z,8.40
2023-03-25T10:05:23.351Z,8.80
2023-03-25T10:08:17.540Z,9.30
2023-03-25T10:11:03.666Z,9.10
2023-03-25T10:13:54.391Z,8.90
2023-03-25T10:16:59.374Z,8.80
2023-03-25T10:19:54.209Z,9.00
2023-03-25T10:22:36.592Z,9.40
2023-03-25T10:25:06.504Z,9.90
2023-03-25T10:27:43.048Z,10.10
2023-03-25T10:30:09.700Z,10.20
2023-03-25T10:32:56.966Z,10.50
2023-03-25T10:35:33.826Z,10.80
2023-03-25T10:38:13.893Z,11.20
2023-03-25T10:40:50.357Z,11.40
2023-03-25T10:43:27.800Z,11.60
2023-03-25T10:46:13.162Z,11.90
2023-03-25T10:48:40.869Z,11.70
2023-03-25T10:51:12.670Z,11.50
2023-03-25T10:53:42.013Z,11.40
2023-03-25T10:56:15.739Z,11.20
2023-03-25T10:58:45.721Z,10.90
2023-03-25T11:01:18.522Z,10.80
2023-03-25T11:03:50.875Z,10.50
2023-03-25T11:06:39.955Z,10.20
2023-03-25T11:09:26.418Z,9.80
2023-03-25T11:11:54.152Z,9.60
2023-03-25T11:14:27.386Z,9.90
2023-03-25T11:17:03.870Z,10.60
2023-03-25T11:19:30.778Z,10.80
2023-03-25T11:22:02.734Z,10.90
2023-03-25T11:24:35.246Z,10.80
2023-03-25T11:27:02.192Z,10.60
2023-03-25T11:29:29.542Z,10.50
2023-03-25T11:32:06.986Z,10.30
2023-03-25T11:34:42.146Z,10.00
2023-03-25T11:37:27.867Z,9.80
2023-03-25T11:39:56.077Z,9.60
2023-03-25T11:42:35.920Z,9.50
2023-03-25T11:45:03.937Z,9.70
2023-03-25T11:47:38.932Z,9.90
2023-03-25T11:50:07.127Z,9.80
2023-03-25T11:52:41.665Z,9.90
2023-03-25T11:55:21.580Z,10.40
2023-03-25T11:57:50.676Z,10.80
2023-03-25T12:00:28.399Z,10.90
2023-03-25T12:03:20.190Z,11.10
2023-03-25T12:05:59.705Z,11.30
2023-03-25T12:08:31.167Z,11.60
2023-03-25T12:11:00.366Z,11.80
2023-03-25T12:13:39.012Z,12.00
2023-03-25T12:16:32.780Z,11.90
2023-03-25T12:19:11.390Z,11.80
2023-03-25T12:21:50.321Z,11.70
2023-03-25T12:24:38.830Z,11.80
2023-03-25T12:27:13.175Z,11.80
2023-03-25T12:30:06.174Z,11.80
2023-03-25T12:32:52.855Z,11.60
2023-03-25T12:35:37.918Z,11.40
2023-03-25T12:38:10.574Z,11.30
2023-03-25T12:40:40.161Z,11.00
2023-03-25T12:43:11.901Z,10.90
2023-03-25T12:45:49.331Z,10.80
2023-03-25T12:48:45.629Z,10.70
2023-03-25T12:51:51.480Z,10.70
2023-03-25T12:54:30.091Z,10.70
2023-03-25T12:57:27.831Z,10.50
2023-03-25T13:00:20.340Z,10.30
2023-03-25T13:03:19.200Z,10.20
2023-03-25T13:05:50.271Z,10.10
2023-03-25T13:08:27.084Z,10.30
2023-03-25T13:11:03.045Z,10.40
2023-03-25T13:13:33.695Z,10.50
2023-03-25T13:16:11.850Z,10.70
2023-03-25T13:18:46.169Z,10.90
2023-03-25T13:21:36.392Z,11.00
2023-03-25T13:24:16.814Z,10.90
2023-03-25T13:26:49.924Z,10.80
2023-03-25T13:29:36.145Z,10.60
2023-03-25T13:32:09.715Z,10.30
2023-03-25T13:34:43.069Z,10.10
2023-03-25T13:37:31.701Z,10.20
2023-03-25T13:40:13.566Z,10.20
2023-03-25T13:43:19.234Z,10.30
2023-03-25T13:45:50.694Z,10.50
2023-03-25T13:48:23.648Z,10.60
2023-03-25T13:50:51.169Z,10.60
2023-03-25T13:53:37.731Z,10.70
2023-03-25T13:56:07.242Z,10.80
2023-03-25T13:58:49.298Z,10.80
2023-03-25T14:01:28.815Z,10.90
2023-03-25T14:04:17.615Z,10.80
2023-03-25T14:07:22.055Z,10.90
2023-03-25T14:10:09.913Z,10.90
2023-03-25T14:12:43.845Z,10.80
2023-03-25T14:15:34.344Z,10.70
2023-03-25T14:18:02.555Z,10.80
2023-03-25T14:20:41.778Z,10.60
2023-03-25T14:23:15.725Z,10.60
2023-03-25T14:25:50.346Z,10.70
2023-03-25T14:28:22.254Z,10.70
2023-03-25T14:31:31.761Z,10.90
2023-03-25T14:34:09.716Z,11.00
2023-03-25T14:36:57.468Z,11.00
2023-03-25T14:39:30.279Z,11.20
2023-03-25T14:42:11.364Z,11.30
2023-03-25T14:44:41.629Z,11.30
2023-03-25T14:47:20.235Z,11.30
2023-03-25T14:50:29.660Z,11.30
2023-03-25T14:53:01.034Z,11.30
2023-03-25T14:55:30.965Z,11.20
2023-03-25T14:58:05.086Z,11.30
2023-03-25T15:00:42.481Z,11.30
2023-03-25T15:03:13.182Z,11.30
2023-03-25T15:05:42.363Z,11.30
2023-03-25T15:08:09.726Z,11.20
2023-03-25T15:10:48.404Z,11.30
2023-03-25T15:13:26.894Z,11.20
2023-03-25T15:16:01.445Z,11.20
2023-03-25T15:18:37.329Z,11.10
2023-03-25T15:21:10.508Z,11.20
2023-03-25T15:23:42.336Z,11.30
2023-03-25T15:26:33.203Z,11.30
2023-03-25T15:29:23.840Z,11.20
2023-03-25T15:31:58.522Z,11.10
2023-03-25T15:35:03.569Z,11.00
2023-03-25T15:38:12.533Z,10.90
2023-03-25T15:41:01.304Z,10.90
2023-03-25T15:43:47.261Z,10.80
2023-03-25T15:46:31.790Z,10.80
2023-03-25T15:49:07.075Z,10.80
2023-03-25T15:51:52.733Z,10.70
2023-03-25T15:54:40.439Z,10.60
2023-03-25T15:57:33.598Z,10.60
2023-03-25T16:00:22.007Z,10.60
2023-03-25T16:02:51.325Z,10.60
2023-03-25T16:05:19.710Z,10.60
2023-03-25T16:07:47.281Z,10.60
2023-03-25T16:10:19.187Z,10.50
2023-03-25T16:12:47.758Z,10.50
2023-03-25T16:15:24.899Z,10.40
2023-03-25T16:17:52.152Z,10.50
2023-03-25T16:20:23.188Z,10.50
2023-03-25T16:22:54.023Z,10.50
2023-03-25T16:25:27.804Z,10.40
2023-03-25T16:27:57.990Z,10.40
2023-03-25T16:30:34.048Z,10.40
2023-03-25T16:33:07.090Z,10.40
2023-03-25T16:35:42.001Z,10.30
2023-03-25T16:38:14.130Z,10.40
2023-03-25T16:40:43.767Z,10.40
2023-03-25T16:43:13.188Z,10.40
2023-03-25T16:45:40.850Z,10.30
2023-03-25T16:48:14.235Z,10.40
2023-03-25T16:50:42.164Z,10.40
2023-03-25T16:53:14.349Z,10.40
2023-03-25T16:55:57.810Z,10.30
2023-03-25T16:58:27.857Z,10.40
2023-03-25T17:00:55.944Z,10.30
2023-03-25T17:04:10.592Z,10.30
2023-03-25T17:06:39.961Z,10.30
2023-03-25T17:09:40.023Z,10.20
2023-03-25T17:12:10.868Z,10.20
2023-03-25T17:14:42.791Z,10.20
2023-03-25T17:17:23.371Z,10.30
2023-03-25T17:19:52.355Z,10.10
2023-03-25T17:22:33.677Z,10.10
2023-03-25T17:25:27.409Z,10.10
2023-03-25T17:27:56.867Z,10.10
2023-03-25T17:30:45.219Z,10.00
2023-03-25T17:33:20.160Z,9.90
2023-03-25T17:35:56.599Z,9.90
2023-03-25T17:38:27.733Z,9.80
2023-03-25T17:41:03.188Z,9.80
2023-03-25T17:43:33.070Z,9.80
2023-03-25T17:46:00.673Z,9.70
2023-03-25T17:48:28.645Z,9.70
2023-03-25T17:50:57.430Z,9.70
2023-03-25T17:53:25.404Z,9.70
2023-03-25T17:55:52.845Z,9.50
2023-03-25T17:58:21.749Z,9.60
2023-03-25T18:00:50.354Z,9.60
2023-03-25T18:03:23.700Z,9.50
2023-03-25T18:05:53.862Z,9.50
2023-03-25T18:08:23.191Z,9.50
2023-03-25T18:10:51.629Z,9.50
2023-03-25T18:13:18.922Z,9.40
2023-03-25T18:15:45.676Z,9.40
2023-03-25T18:18:26.350Z,9.30
2023-03-25T18:20:56.158Z,9.30
2023-03-25T18:23:23.555Z,9.30
2023-03-25T18:25:50.609Z,9.20
2023-03-25T18:28:17.616Z,9.20
2023-03-25T18:30:52.815Z,9.10
2023-03-25T18:33:20.474Z,9.10
2023-03-25T18:35:48.044Z,9.00
2023-03-25T18:38:24.620Z,8.90
2023-03-25T18:40:52.515Z,8.80
2023-03-25T18:43:19.935Z,8.80
2023-03-25T18:45:49.081Z,8.80
2023-03-25T18:48:21.140Z,8.80
2023-03-25T18:50:56.365Z,8.70
2023-03-25T18:53:27.446Z,8.70
2023-03-25T18:56:01.932Z,8.60
2023-03-25T18:58:31.946Z,8.60
2023-03-25T19:01:01.050Z,8.50
2023-03-25T19:03:31.717Z,8.60
2023-03-25T19:06:00.246Z,8.50
2023-03-25T19:08:27.904Z,8.50
2023-03-25T19:10:59.550Z,8.40
2023-03-25T19:13:35.246Z,8.40
2023-03-25T19:16:02.065Z,8.30
2023-03-25T19:18:31.461Z,8.30
2023-03-25T19:20:58.381Z,8.30
2023-03-25T19:23:25.576Z,8.20
2023-03-25T19:25:53.640Z,8.30
2023-03-25T19:28:23.085Z,8.20
2023-03-25T19:30:51.761Z,8.20
2023-03-25T19:33:19.797Z,8.10
2023-03-25T19:35:55.022Z,8.20
2023-03-25T19:38:23.155Z,8.20
2023-03-25T19:40:52.002Z,8.20
2023-03-25T19:43:19.103Z,8.20
2023-03-25T19:45:46.114Z,8.20
2023-03-25T19:48:12.785Z,8.20
2023-03-25T19:50:41.091Z,8.10
2023-03-25T19:53:07.995Z,8.20
2023-03-25T19:55:34.881Z,8.20
2023-03-25T19:58:02.265Z,8.20
2023-03-25T20:00:32.011Z,8.10
2023-03-25T20:03:00.876Z,8.10
2023-03-25T20:05:38.497Z,8.00
2023-03-25T20:08:09.265Z,7.90
2023-03-25T20:10:39.606Z,7.90
2023-03-25T20:13:06.469Z,7.70
2023-03-25T20:15:34.929Z,7.70
2023-03-25T20:18:01.672Z,7.70
2023-03-25T20:20:28.483Z,7.60
2023-03-25T20:22:55.889Z,7.60
2023-03-25T20:25:22.836Z,7.60
2023-03-25T20:27:49.587Z,7.60
2023-03-25T20:30:19.565Z,7.60
2023-03-25T20:32:48.504Z,7.60
2023-03-25T20:35:17.090Z,7.60
2023-03-25T20:37:45.572Z,7.60
2023-03-25T20:40:15.378Z,7.60
2023-03-25T20:42:44.453Z,7.60
2023-03-25T20:45:15.801Z,7.60
2023-03-25T20:47:42.867Z,7.60
2023-03-25T20:50:14.463Z,7.60
2023-03-25T20:52:42.006Z,7.60
2023-03-25T20:55:10.094Z,7.50
2023-03-25T20:57:37.207Z,7.50
2023-03-25T21:00:05.306Z,7.30
2023-03-25T21:02:32.248Z,7.30
2023-03-25T21:05:01.174Z,7.20
2023-03-25T21:07:31.886Z,7.30
2023-03-25T21:09:59.521Z,7.30
2023-03-25T21:12:36.396Z,7.30
2023-03-25T21:15:09.305Z,7.30
2023-03-25T21:17:37.134Z,7.30
2023-03-25T21:20:07.388Z,7.40
2023-03-25T21:22:34.819Z,7.30
2023-03-25T21:25:01.924Z,7.40
2023-03-25T21:27:37.943Z,7.40
2023-03-25T21:30:08.074Z,7.30
2023-03-25T21:32:35.163Z,7.30
2023-03-25T21:35:02.180Z,7.30
2023-03-25T21:37:29.423Z,7.30
2023-03-25T21:39:58.146Z,7.30
2023-03-25T21:42:25.266Z,7.30
2023-03-25T21:44:52.124Z,7.20
2023-03-25T21:47:18.994Z,7.20
2023-03-25T21:49:45.784Z,7.20
2023-03-25T21:52:13.428Z,7.20
2023-03-25T21:54:43.663Z,7.20
2023-03-25T21:57:11.336Z,7.10
2023-03-25T21:59:38.737Z,7.10
2023-03-25T22:02:06.187Z,6.90
2023-03-25T22:04:33.702Z,7.00
2023-03-25T22:07:00.902Z,6.90
2023-03-25T22:09:27.725Z,6.90
2023-03-25T22:11:57.986Z,6.80
2023-03-25T22:14:24.748Z,6.80
2023-03-25T22:16:51.657Z,6.80
2023-03-25T22:19:18.424Z,6.80
2023-03-25T22:21:45.337Z,6.80
2023-03-25T22:24:12.315Z,6.80
2023-03-25T22:26:40.004Z,6.80
2023-03-25T22:29:08.911Z,6.80
2023-03-25T22:31:40.592Z,6.80
2023-03-25T22:34:15.261Z,6.80
2023-03-25T22:36:50.924Z,6.80
2023-03-25T22:39:19.622Z,6.90
2023-03-25T22:41:47.388Z,6.80
2023-03-25T22:44:17.092Z,6.70
2023-03-25T22:46:48.497Z,6.70
2023-03-25T22:49:16.038Z,6.70
2023-03-25T22:51:43.175Z,6.70
2023-03-25T22:54:10.856Z,6.70
2023-03-25T22:56:38.379Z,6.70
2023-03-25T22:59:07.391Z,6.80
2023-03-25T23:01:35.986Z,6.80
2023-03-25T23:04:05.623Z,6.80
2023-03-25T23:06:33.348Z,6.80
2023-03-25T23:09:00.249Z,6.80
2023-03-25T23:11:29.290Z,6.80
2023-03-25T23:14:02.347Z,6.80
2023-03-25T23:16:31.433Z,6.80
2023-03-25T23:18:58.875Z,6.80
2023-03-25T23:21:28.474Z,6.70
2023-03-25T23:23:58.147Z,6.60
2023-03-25T23:26:34.333Z,6.60
2023-03-25T23:29:01.460Z,6.50
2023-03-25T23:31:33.845Z,6.50
2023-03-25T23:34:06.860Z,6.50
2023-03-25T23:36:36.614Z,6.50
2023-03-25T23:39:07.080Z,6.50
2023-03-25T23:41:34.526Z,6.50
2023-03-25T23:44:01.347Z,6.50
2023-03-25T23:46:28.397Z,6.40
2023-03-25T23:48:55.329Z,6.40
2023-03-25T23:51:24.393Z,6.40
2023-03-25T23:53:52.291Z,6.40
2023-03-25T23:56:21.940Z,6.30
2023-03-25T23:58:49.442Z,6.20
